sensor_id;sensor_type;location;lat;lon;timestamp;P1;durP1;ratioP1;P2;durP2;ratioP2
18867;SDS011;9563;49.240;9.088;2023-06-10T05:01:10;12.43;;;6.55;;
18867;SDS011;9563;49.240;9.088;2023-06-10T05:03:37;7.50;;;5.60;;
18867;SDS011;9563;49.240;9.088;2023-06-10T05:06:04;8.20;;;5.75;;
18867;SDS011;9563;49.240;9.088;2023-06-10T05:08:31;7.93;;;5.85;;
18867;SDS011;9563;49.240;9.088;2023-06-10T05:10:58;7.88;;;5.88;;
18867;SDS011;9563;49.240;9.088;2023-06-10T05:13:25;8.13;;;6.20;;
18867;SDS011;9563;49.240;9.088;2023-06-10T05:15:51;12.95;;;5.93;;
18867;SDS011;9563;49.240;9.088;2023-06-10T05:18:20;9.63;;;6.20;;
18867;SDS011;9563;49.240;9.088;2023-06-10T05:20:47;7.57;;;5.82;;
18867;SDS011;9563;49.240;9.088;2023-06-10T05:23:14;8.45;;;6.03;;
18867;SDS011;9563;49.240;9.088;2023-06-10T05:25:41;7.05;;;5.50;;
18867;SDS011;9563;49.240;9.088;2023-06-10T05:28:08;11.32;;;5.90;;
18867;SDS011;9563;49.240;9.088;2023-06-10T05:30:35;7.65;;;5.97;;
18867;SDS011;9563;49.240;9.088;2023-06-10T05:33:02;7.32;;;6.00;;
18867;SDS011;9563;49.240;9.088;2023-06-10T05:35:31;8.88;;;6.70;;
18867;SDS011;9563;49.240;9.088;2023-06-10T05:37:57;8.68;;;5.97;;
18867;SDS011;9563;49.240;9.088;2023-06-10T05:40:24;7.07;;;5.63;;
18867;SDS011;9563;49.240;9.088;2023-06-10T05:42:51;9.27;;;6.05;;
18867;SDS011;9563;49.240;9.088;2023-06-10T05:45:18;10.20;;;6.20;;
18867;SDS011;9563;49.240;9.088;2023-06-10T05:47:45;8.25;;;6.25;;
18867;SDS011;9563;49.240;9.088;2023-06-10T05:50:12;8.18;;;5.78;;
18867;SDS011;9563;49.240;9.088;2023-06-10T05:52:40;7.38;;;6.28;;
18867;SDS011;9563;49.240;9.088;2023-06-10T05:55:07;11.82;;;6.97;;
18867;SDS011;9563;49.240;9.088;2023-06-10T05:57:35;9.15;;;6.65;;
18867;SDS011;9563;49.240;9.088;2023-06-10T06:00:02;11.63;;;6.20;;
18867;SDS011;9563;49.240;9.088;2023-06-10T06:02:29;9.73;;;5.70;;
18867;SDS011;9563;49.240;9.088;2023-06-10T06:04:56;11.52;;;6.47;;
18867;SDS011;9563;49.240;9.088;2023-06-10T06:07:23;8.73;;;6.43;;
18867;SDS011;9563;49.240;9.088;2023-06-10T06:09:51;11.70;;;6.68;;
18867;SDS011;9563;49.240;9.088;2023-06-10T06:12:18;8.07;;;6.32;;
18867;SDS011;9563;49.240;9.088;2023-06-10T06:14:45;11.55;;;6.03;;
18867;SDS011;9563;49.240;9.088;2023-06-10T06:17:14;9.85;;;6.45;;
18867;SDS011;9563;49.240;9.088;2023-06-10T06:19:41;9.98;;;6.10;;
18867;SDS011;9563;49.240;9.088;2023-06-10T06:22:08;9.82;;;6.53;;
18867;SDS011;9563;49.240;9.088;2023-06-10T06:24:35;9.82;;;6.32;;
18867;SDS011;9563;49.240;9.088;2023-06-10T06:27:04;9.73;;;6.00;;
18867;SDS011;9563;49.240;9.088;2023-06-10T06:29:31;8.77;;;6.32;;
18867;SDS011;9563;49.240;9.088;2023-06-10T06:31:58;9.48;;;6.35;;
18867;SDS011;9563;49.240;9.088;2023-06-10T06:34:25;12.57;;;5.63;;
18867;SDS011;9563;49.240;9.088;2023-06-10T06:36:52;9.18;;;6.35;;
18867;SDS011;9563;49.240;9.088;2023-06-10T06:39:18;7.55;;;6.03;;
18867;SDS011;9563;49.240;9.088;2023-06-10T06:41:45;8.05;;;6.22;;
18867;SDS011;9563;49.240;9.088;2023-06-10T06:44:13;8.18;;;6.03;;
18867;SDS011;9563;49.240;9.088;2023-06-10T06:46:40;7.72;;;6.20;;
18867;SDS011;9563;49.240;9.088;2023-06-10T06:49:07;8.50;;;6.28;;
18867;SDS011;9563;49.240;9.088;2023-06-10T06:51:34;8.85;;;6.25;;
18867;SDS011;9563;49.240;9.088;2023-06-10T06:54:02;7.10;;;6.25;;
18867;SDS011;9563;49.240;9.088;2023-06-10T06:56:30;9.27;;;5.97;;
18867;SDS011;9563;49.240;9.088;2023-06-10T06:58:57;7.10;;;5.40;;
18867;SDS011;9563;49.240;9.088;2023-06-10T07:01:25;7.95;;;5.75;;
18867;SDS011;9563;49.240;9.088;2023-06-10T07:03:52;7.53;;;5.90;;
18867;SDS011;9563;49.240;9.088;2023-06-10T07:06:19;8.77;;;5.97;;
18867;SDS011;9563;49.240;9.088;2023-06-10T07:08:46;11.32;;;6.35;;
18867;SDS011;9563;49.240;9.088;2023-06-10T07:11:15;8.05;;;5.72;;
18867;SDS011;9563;49.240;9.088;2023-06-10T07:13:42;8.77;;;6.10;;
18867;SDS011;9563;49.240;9.088;2023-06-10T07:16:09;6.68;;;5.15;;
18867;SDS011;9563;49.240;9.088;2023-06-10T07:18:37;11.63;;;6.30;;
18867;SDS011;9563;49.240;9.088;2023-06-10T07:21:04;8.75;;;5.82;;
18867;SDS011;9563;49.240;9.088;2023-06-10T07:23:31;6.90;;;5.60;;
18867;SDS011;9563;49.240;9.088;2023-06-10T07:25:58;7.53;;;5.50;;
18867;SDS011;9563;49.240;9.088;2023-06-10T07:28:25;7.93;;;5.65;;
18867;SDS011;9563;49.240;9.088;2023-06-10T07:30:52;7.22;;;5.53;;
18867;SDS011;9563;49.240;9.088;2023-06-10T07:33:18;7.95;;;5.63;;
18867;SDS011;9563;49.240;9.088;2023-06-10T07:35:49;7.60;;;5.80;;
18867;SDS011;9563;49.240;9.088;2023-06-10T07:38:16;8.13;;;5.25;;
18867;SDS011;9563;49.240;9.088;2023-06-10T07:40:43;11.85;;;6.10;;
18867;SDS011;9563;49.240;9.088;2023-06-10T07:43:10;9.40;;;6.22;;
18867;SDS011;9563;49.240;9.088;2023-06-10T07:45:39;6.88;;;5.10;;
18867;SDS011;9563;49.240;9.088;2023-06-10T07:48:06;8.07;;;5.47;;
18867;SDS011;9563;49.240;9.088;2023-06-10T07:50:33;16.17;;;5.80;;
18867;SDS011;9563;49.240;9.088;2023-06-10T07:53:02;8.15;;;5.43;;
18867;SDS011;9563;49.240;9.088;2023-06-10T07:55:29;7.45;;;4.60;;
18867;SDS011;9563;49.240;9.088;2023-06-10T07:57:56;6.38;;;4.88;;
18867;SDS011;9563;49.240;9.088;2023-06-10T08:00:23;6.47;;;5.07;;
18867;SDS011;9563;49.240;9.088;2023-06-10T08:02:50;6.97;;;5.50;;
18867;SDS011;9563;49.240;9.088;2023-06-10T08:05:17;8.80;;;4.80;;
18867;SDS011;9563;49.240;9.088;2023-06-10T08:07:44;5.90;;;4.72;;
18867;SDS011;9563;49.240;9.088;2023-06-10T08:10:12;8.45;;;5.38;;
18867;SDS011;9563;49.240;9.088;2023-06-10T08:12:39;7.43;;;4.95;;
18867;SDS011;9563;49.240;9.088;2023-06-10T08:15:06;9.63;;;4.97;;
18867;SDS011;9563;49.240;9.088;2023-06-10T08:17:34;9.55;;;5.28;;
18867;SDS011;9563;49.240;9.088;2023-06-10T08:20:01;8.55;;;4.78;;
18867;SDS011;9563;49.240;9.088;2023-06-10T08:22:28;7.78;;;4.90;;
18867;SDS011;9563;49.240;9.088;2023-06-10T08:24:55;5.70;;;4.60;;
18867;SDS011;9563;49.240;9.088;2023-06-10T08:27:23;6.63;;;5.18;;
18867;SDS011;9563;49.240;9.088;2023-06-10T08:29:50;8.48;;;5.18;;
18867;SDS011;9563;49.240;9.088;2023-06-10T08:32:17;6.18;;;4.80;;
18867;SDS011;9563;49.240;9.088;2023-06-10T08:34:44;6.78;;;4.82;;
18867;SDS011;9563;49.240;9.088;2023-06-10T08:37:11;7.43;;;5.07;;
18867;SDS011;9563;49.240;9.088;2023-06-10T08:39:38;9.07;;;5.35;;
18867;SDS011;9563;49.240;9.088;2023-06-10T08:42:08;6.13;;;4.95;;
18867;SDS011;9563;49.240;9.088;2023-06-10T08:44:39;6.82;;;4.80;;
18867;SDS011;9563;49.240;9.088;2023-06-10T08:47:08;5.65;;;4.55;;
18867;SDS011;9563;49.240;9.088;2023-06-10T08:49:40;5.82;;;4.68;;
18867;SDS011;9563;49.240;9.088;2023-06-10T08:52:11;5.78;;;4.72;;
18867;SDS011;9563;49.240;9.088;2023-06-10T08:54:42;7.25;;;4.75;;
18867;SDS011;9563;49.240;9.088;2023-06-10T08:57:11;8.00;;;4.05;;
18867;SDS011;9563;49.240;9.088;2023-06-10T08:59:40;5.72;;;4.70;;
18867;SDS011;9563;49.240;9.088;2023-06-10T09:02:08;6.32;;;4.18;;
18867;SDS011;9563;49.240;9.088;2023-06-10T09:04:36;6.55;;;4.25;;
18867;SDS011;9563;49.240;9.088;2023-06-10T09:07:03;7.10;;;4.35;;
18867;SDS011;9563;49.240;9.088;2023-06-10T09:09:31;5.53;;;4.25;;
18867;SDS011;9563;49.240;9.088;2023-06-10T09:12:00;6.63;;;4.40;;
18867;SDS011;9563;49.240;9.088;2023-06-10T09:14:28;5.28;;;4.20;;
18867;SDS011;9563;49.240;9.088;2023-06-10T09:16:56;6.63;;;4.28;;
18867;SDS011;9563;49.240;9.088;2023-06-10T09:19:23;6.72;;;4.10;;
18867;SDS011;9563;49.240;9.088;2023-06-10T09:21:52;5.22;;;4.35;;
18867;SDS011;9563;49.240;9.088;2023-06-10T09:24:20;8.98;;;4.50;;
18867;SDS011;9563;49.240;9.088;2023-06-10T09:26:48;6.72;;;4.18;;
18867;SDS011;9563;49.240;9.088;2023-06-10T09:29:16;6.68;;;4.03;;
18867;SDS011;9563;49.240;9.088;2023-06-10T09:31:43;5.32;;;4.03;;
18867;SDS011;9563;49.240;9.088;2023-06-10T09:34:13;5.95;;;4.18;;
18867;SDS011;9563;49.240;9.088;2023-06-10T09:36:42;5.45;;;4.28;;
18867;SDS011;9563;49.240;9.088;2023-06-10T09:39:13;6.30;;;4.53;;
18867;SDS011;9563;49.240;9.088;2023-06-10T09:41:42;5.88;;;4.38;;
18867;SDS011;9563;49.240;9.088;2023-06-10T09:44:11;4.70;;;4.20;;
18867;SDS011;9563;49.240;9.088;2023-06-10T09:46:39;8.98;;;4.60;;
18867;SDS011;9563;49.240;9.088;2023-06-10T09:49:07;9.45;;;4.30;;
18867;SDS011;9563;49.240;9.088;2023-06-10T09:51:35;5.50;;;4.18;;
18867;SDS011;9563;49.240;9.088;2023-06-10T09:54:02;8.82;;;4.60;;
18867;SDS011;9563;49.240;9.088;2023-06-10T09:56:33;6.18;;;3.92;;
18867;SDS011;9563;49.240;9.088;2023-06-10T09:59:01;6.55;;;4.07;;
18867;SDS011;9563;49.240;9.088;2023-06-10T10:01:30;7.43;;;4.15;;
18867;SDS011;9563;49.240;9.088;2023-06-10T10:03:58;5.78;;;3.60;;
18867;SDS011;9563;49.240;9.088;2023-06-10T10:06:25;5.60;;;3.75;;
18867;SDS011;9563;49.240;9.088;2023-06-10T10:08:55;4.93;;;3.95;;
18867;SDS011;9563;49.240;9.088;2023-06-10T10:11:22;5.85;;;4.00;;
18867;SDS011;9563;49.240;9.088;2023-06-10T10:13:51;5.07;;;3.80;;
18867;SDS011;9563;49.240;9.088;2023-06-10T10:16:20;5.20;;;3.90;;
18867;SDS011;9563;49.240;9.088;2023-06-10T10:18:49;8.88;;;3.75;;
18867;SDS011;9563;49.240;9.088;2023-06-10T10:21:21;6.13;;;4.10;;
18867;SDS011;9563;49.240;9.088;2023-06-10T10:23:53;5.38;;;3.95;;
18867;SDS011;9563;49.240;9.088;2023-06-10T10:26:25;6.10;;;3.50;;
18867;SDS011;9563;49.240;9.088;2023-06-10T10:28:56;6.47;;;3.67;;
18867;SDS011;9563;49.240;9.088;2023-06-10T10:31:32;6.22;;;3.63;;
18867;SDS011;9563;49.240;9.088;2023-06-10T10:34:01;7.57;;;3.92;;
18867;SDS011;9563;49.240;9.088;2023-06-10T10:36:32;4.47;;;3.50;;
18867;SDS011;9563;49.240;9.088;2023-06-10T10:39:02;7.70;;;3.80;;
18867;SDS011;9563;49.240;9.088;2023-06-10T10:41:31;8.27;;;4.40;;
18867;SDS011;9563;49.240;9.088;2023-06-10T10:43:58;7.15;;;3.90;;
18867;SDS011;9563;49.240;9.088;2023-06-10T10:46:26;4.35;;;3.80;;
18867;SDS011;9563;49.240;9.088;2023-06-10T10:48:53;4.78;;;4.22;;
18867;SDS011;9563;49.240;9.088;2023-06-10T10:51:22;6.22;;;4.15;;
18867;SDS011;9563;49.240;9.088;2023-06-10T10:56:38;4.93;;;3.70;;
18867;SDS011;9563;49.240;9.088;2023-06-10T10:59:05;4.65;;;3.78;;
18867;SDS011;9563;49.240;9.088;2023-06-10T11:01:40;6.50;;;4.07;;
18867;SDS011;9563;49.240;9.088;2023-06-10T11:04:11;3.75;;;3.38;;
18867;SDS011;9563;49.240;9.088;2023-06-10T11:06:38;4.95;;;3.92;;
18867;SDS011;9563;49.240;9.088;2023-06-10T11:11:56;6.82;;;3.55;;
18867;SDS011;9563;49.240;9.088;2023-06-10T11:14:26;3.97;;;3.20;;
18867;SDS011;9563;49.240;9.088;2023-06-10T11:16:56;4.22;;;3.17;;
18867;SDS011;9563;49.240;9.088;2023-06-10T11:19:32;6.07;;;3.65;;
18867;SDS011;9563;49.240;9.088;2023-06-10T11:22:01;4.25;;;3.38;;
18867;SDS011;9563;49.240;9.088;2023-06-10T11:24:30;5.45;;;3.28;;
18867;SDS011;9563;49.240;9.088;2023-06-10T11:29:55;4.93;;;3.60;;
18867;SDS011;9563;49.240;9.088;2023-06-10T11:32:23;5.50;;;3.83;;
18867;SDS011;9563;49.240;9.088;2023-06-10T11:34:55;5.75;;;3.50;;
18867;SDS011;9563;49.240;9.088;2023-06-10T11:37:22;4.72;;;4.07;;
18867;SDS011;9563;49.240;9.088;2023-06-10T11:39:52;3.80;;;3.40;;
18867;SDS011;9563;49.240;9.088;2023-06-10T11:42:19;6.53;;;3.55;;
18867;SDS011;9563;49.240;9.088;2023-06-10T11:44:48;5.75;;;3.97;;
18867;SDS011;9563;49.240;9.088;2023-06-10T11:47:15;5.75;;;3.70;;
18867;SDS011;9563;49.240;9.088;2023-06-10T11:49:42;5.32;;;3.60;;
18867;SDS011;9563;49.240;9.088;2023-06-10T11:52:09;6.35;;;3.53;;
18867;SDS011;9563;49.240;9.088;2023-06-10T11:54:37;3.92;;;3.53;;
18867;SDS011;9563;49.240;9.088;2023-06-10T11:57:05;4.40;;;3.63;;
18867;SDS011;9563;49.240;9.088;2023-06-10T11:59:33;5.00;;;4.20;;
18867;SDS011;9563;49.240;9.088;2023-06-10T12:02:00;5.50;;;4.10;;
18867;SDS011;9563;49.240;9.088;2023-06-10T12:04:38;5.78;;;3.75;;
18867;SDS011;9563;49.240;9.088;2023-06-10T12:07:05;5.47;;;3.50;;
18867;SDS011;9563;49.240;9.088;2023-06-10T12:09:31;5.55;;;3.72;;
18867;SDS011;9563;49.240;9.088;2023-06-10T12:12:00;5.15;;;3.58;;
18867;SDS011;9563;49.240;9.088;2023-06-10T12:17:19;4.45;;;3.47;;
18867;SDS011;9563;49.240;9.088;2023-06-10T12:19:49;4.53;;;2.78;;
18867;SDS011;9563;49.240;9.088;2023-06-10T12:22:16;4.03;;;2.88;;
18867;SDS011;9563;49.240;9.088;2023-06-10T12:24:44;3.20;;;2.88;;
18867;SDS011;9563;49.240;9.088;2023-06-10T12:27:12;4.00;;;2.67;;
18867;SDS011;9563;49.240;9.088;2023-06-10T12:29:39;3.35;;;2.53;;
18867;SDS011;9563;49.240;9.088;2023-06-10T12:32:16;3.35;;;2.70;;
18867;SDS011;9563;49.240;9.088;2023-06-10T12:34:45;5.07;;;2.90;;
18867;SDS011;9563;49.240;9.088;2023-06-10T12:37:14;3.22;;;2.92;;
18867;SDS011;9563;49.240;9.088;2023-06-10T12:39:41;4.35;;;2.60;;
18867;SDS011;9563;49.240;9.088;2023-06-10T12:42:08;6.18;;;3.20;;
18867;SDS011;9563;49.240;9.088;2023-06-10T12:44:38;3.78;;;3.00;;
18867;SDS011;9563;49.240;9.088;2023-06-10T12:47:09;5.07;;;2.53;;
18867;SDS011;9563;49.240;9.088;2023-06-10T12:49:37;4.20;;;2.80;;
18867;SDS011;9563;49.240;9.088;2023-06-10T12:52:05;5.03;;;2.90;;
18867;SDS011;9563;49.240;9.088;2023-06-10T12:54:34;3.50;;;2.65;;
18867;SDS011;9563;49.240;9.088;2023-06-10T12:57:01;4.38;;;2.97;;
18867;SDS011;9563;49.240;9.088;2023-06-10T12:59:28;3.08;;;2.78;;
18867;SDS011;9563;49.240;9.088;2023-06-10T13:01:57;4.47;;;2.97;;
18867;SDS011;9563;49.240;9.088;2023-06-10T13:04:24;3.83;;;2.85;;
18867;SDS011;9563;49.240;9.088;2023-06-10T13:06:51;3.00;;;2.72;;
18867;SDS011;9563;49.240;9.088;2023-06-10T13:09:18;4.15;;;3.03;;
18867;SDS011;9563;49.240;9.088;2023-06-10T13:11:47;3.25;;;2.70;;
18867;SDS011;9563;49.240;9.088;2023-06-10T13:14:13;5.68;;;3.30;;
18867;SDS011;9563;49.240;9.088;2023-06-10T13:16:40;4.00;;;2.88;;
18867;SDS011;9563;49.240;9.088;2023-06-10T13:19:09;3.88;;;3.47;;
18867;SDS011;9563;49.240;9.088;2023-06-10T13:21:36;4.05;;;2.78;;
18867;SDS011;9563;49.240;9.088;2023-06-10T13:24:03;4.80;;;3.10;;
18867;SDS011;9563;49.240;9.088;2023-06-10T13:26:30;3.97;;;2.85;;
18867;SDS011;9563;49.240;9.088;2023-06-10T13:28:59;4.28;;;3.05;;
18867;SDS011;9563;49.240;9.088;2023-06-10T13:31:26;4.18;;;2.67;;
18867;SDS011;9563;49.240;9.088;2023-06-10T13:33:53;2.95;;;2.72;;
18867;SDS011;9563;49.240;9.088;2023-06-10T13:36:20;4.03;;;3.00;;
18867;SDS011;9563;49.240;9.088;2023-06-10T13:38:47;2.72;;;2.50;;
18867;SDS011;9563;49.240;9.088;2023-06-10T13:41:14;2.92;;;2.55;;
18867;SDS011;9563;49.240;9.088;2023-06-10T13:43:40;4.05;;;2.63;;
18867;SDS011;9563;49.240;9.088;2023-06-10T13:46:09;5.72;;;2.88;;
18867;SDS011;9563;49.240;9.088;2023-06-10T13:48:36;3.88;;;2.58;;
18867;SDS011;9563;49.240;9.088;2023-06-10T13:51:03;3.35;;;2.90;;
18867;SDS011;9563;49.240;9.088;2023-06-10T13:53:30;3.03;;;2.70;;
18867;SDS011;9563;49.240;9.088;2023-06-10T13:55:57;3.90;;;3.05;;
18867;SDS011;9563;49.240;9.088;2023-06-10T13:58:24;3.80;;;3.05;;
18867;SDS011;9563;49.240;9.088;2023-06-10T14:00:51;3.58;;;3.08;;
18867;SDS011;9563;49.240;9.088;2023-06-10T14:03:19;3.50;;;2.83;;
18867;SDS011;9563;49.240;9.088;2023-06-10T14:05:46;4.90;;;2.95;;
18867;SDS011;9563;49.240;9.088;2023-06-10T14:08:13;7.72;;;3.13;;
18867;SDS011;9563;49.240;9.088;2023-06-10T14:10:40;4.38;;;3.00;;
18867;SDS011;9563;49.240;9.088;2023-06-10T14:13:07;3.90;;;3.53;;
18867;SDS011;9563;49.240;9.088;2023-06-10T14:15:34;4.10;;;3.15;;
18867;SDS011;9563;49.240;9.088;2023-06-10T14:18:02;3.45;;;2.92;;
18867;SDS011;9563;49.240;9.088;2023-06-10T14:20:30;3.28;;;2.97;;
18867;SDS011;9563;49.240;9.088;2023-06-10T14:22:57;3.75;;;3.17;;
18867;SDS011;9563;49.240;9.088;2023-06-10T14:25:26;3.83;;;3.00;;
18867;SDS011;9563;49.240;9.088;2023-06-10T14:27:53;3.70;;;2.72;;
18867;SDS011;9563;49.240;9.088;2023-06-10T14:30:20;3.38;;;3.05;;
18867;SDS011;9563;49.240;9.088;2023-06-10T14:32:47;5.15;;;3.28;;
18867;SDS011;9563;49.240;9.088;2023-06-10T14:35:14;5.43;;;3.67;;
18867;SDS011;9563;49.240;9.088;2023-06-10T14:37:42;3.72;;;2.90;;
18867;SDS011;9563;49.240;9.088;2023-06-10T14:40:09;3.60;;;3.00;;
18867;SDS011;9563;49.240;9.088;2023-06-10T14:42:36;4.03;;;3.28;;
18867;SDS011;9563;49.240;9.088;2023-06-10T14:45:04;3.45;;;3.10;;
18867;SDS011;9563;49.240;9.088;2023-06-10T14:47:32;4.70;;;3.10;;
18867;SDS011;9563;49.240;9.088;2023-06-10T14:49:59;3.70;;;3.33;;
18867;SDS011;9563;49.240;9.088;2023-06-10T14:52:26;4.68;;;3.42;;
18867;SDS011;9563;49.240;9.088;2023-06-10T14:54:54;4.30;;;3.40;;
18867;SDS011;9563;49.240;9.088;2023-06-10T14:57:21;6.75;;;3.58;;
18867;SDS011;9563;49.240;9.088;2023-06-10T14:59:48;5.50;;;3.15;;
18867;SDS011;9563;49.240;9.088;2023-06-10T15:02:15;5.72;;;2.85;;
18867;SDS011;9563;49.240;9.088;2023-06-10T15:04:42;4.13;;;3.40;;
18867;SDS011;9563;49.240;9.088;2023-06-10T15:07:09;4.72;;;2.97;;
18867;SDS011;9563;49.240;9.088;2023-06-10T15:09:40;3.50;;;3.20;;
18867;SDS011;9563;49.240;9.088;2023-06-10T15:12:09;3.17;;;2.88;;
18867;SDS011;9563;49.240;9.088;2023-06-10T15:14:36;2.90;;;2.70;;
18867;SDS011;9563;49.240;9.088;2023-06-10T15:17:03;5.38;;;2.95;;
18867;SDS011;9563;49.240;9.088;2023-06-10T15:19:30;3.88;;;2.97;;
18867;SDS011;9563;49.240;9.088;2023-06-10T15:21:57;9.45;;;2.92;;
18867;SDS011;9563;49.240;9.088;2023-06-10T15:24:24;18.67;;;9.15;;
18867;SDS011;9563;49.240;9.088;2023-06-10T15:26:51;5.53;;;3.35;;
18867;SDS011;9563;49.240;9.088;2023-06-10T15:29:19;4.90;;;3.13;;
18867;SDS011;9563;49.240;9.088;2023-06-10T15:31:46;3.40;;;2.80;;
18867;SDS011;9563;49.240;9.088;2023-06-10T15:34:13;5.07;;;2.88;;
18867;SDS011;9563;49.240;9.088;2023-06-10T15:36:40;3.67;;;3.10;;
18867;SDS011;9563;49.240;9.088;2023-06-10T15:39:07;3.25;;;2.95;;
18867;SDS011;9563;49.240;9.088;2023-06-10T15:41:34;28.00;;;3.88;;
18867;SDS011;9563;49.240;9.088;2023-06-10T15:44:01;6.18;;;3.08;;
18867;SDS011;9563;49.240;9.088;2023-06-10T15:46:29;3.83;;;3.10;;
18867;SDS011;9563;49.240;9.088;2023-06-10T15:48:56;4.32;;;2.83;;
18867;SDS011;9563;49.240;9.088;2023-06-10T15:51:24;3.92;;;2.72;;
18867;SDS011;9563;49.240;9.088;2023-06-10T15:53:51;3.78;;;3.42;;
18867;SDS011;9563;49.240;9.088;2023-06-10T15:56:18;4.65;;;3.08;;
18867;SDS011;9563;49.240;9.088;2023-06-10T15:58:46;5.15;;;3.38;;
18867;SDS011;9563;49.240;9.088;2023-06-10T16:01:12;5.97;;;2.85;;
18867;SDS011;9563;49.240;9.088;2023-06-10T16:03:41;6.00;;;3.55;;
18867;SDS011;9563;49.240;9.088;2023-06-10T16:06:08;6.43;;;4.00;;
18867;SDS011;9563;49.240;9.088;2023-06-10T16:08:35;6.00;;;3.22;;
18867;SDS011;9563;49.240;9.088;2023-06-10T16:11:02;4.30;;;3.30;;
18867;SDS011;9563;49.240;9.088;2023-06-10T16:13:32;5.22;;;3.08;;
18867;SDS011;9563;49.240;9.088;2023-06-10T16:15:59;4.68;;;2.90;;
18867;SDS011;9563;49.240;9.088;2023-06-10T16:18:25;3.17;;;2.80;;
18867;SDS011;9563;49.240;9.088;2023-06-10T16:20:54;4.07;;;3.10;;
18867;SDS011;9563;49.240;9.088;2023-06-10T16:23:20;4.25;;;3.28;;
18867;SDS011;9563;49.240;9.088;2023-06-10T16:25:47;4.57;;;2.90;;
18867;SDS011;9563;49.240;9.088;2023-06-10T16:28:14;5.63;;;3.13;;
18867;SDS011;9563;49.240;9.088;2023-06-10T16:30:41;6.80;;;3.00;;
18867;SDS011;9563;49.240;9.088;2023-06-10T16:33:08;3.42;;;2.95;;
18867;SDS011;9563;49.240;9.088;2023-06-10T16:35:35;3.92;;;2.85;;
18867;SDS011;9563;49.240;9.088;2023-06-10T16:38:04;3.00;;;2.75;;
18867;SDS011;9563;49.240;9.088;2023-06-10T16:40:31;3.67;;;3.03;;
18867;SDS011;9563;49.240;9.088;2023-06-10T16:42:58;2.88;;;2.67;;
18867;SDS011;9563;49.240;9.088;2023-06-10T16:45:25;3.30;;;3.00;;
18867;SDS011;9563;49.240;9.088;2023-06-10T16:47:52;3.47;;;2.65;;
18867;SDS011;9563;49.240;9.088;2023-06-10T16:50:18;2.92;;;2.50;;
18867;SDS011;9563;49.240;9.088;2023-06-10T16:52:45;3.17;;;2.53;;
18867;SDS011;9563;49.240;9.088;2023-06-10T16:55:14;6.93;;;2.90;;
18867;SDS011;9563;49.240;9.088;2023-06-10T16:57:40;2.78;;;2.58;;
18867;SDS011;9563;49.240;9.088;2023-06-10T17:00:08;2.58;;;2.35;;
18867;SDS011;9563;49.240;9.088;2023-06-10T17:02:35;2.60;;;2.40;;
18867;SDS011;9563;49.240;9.088;2023-06-10T17:05:02;6.65;;;2.78;;
18867;SDS011;9563;49.240;9.088;2023-06-10T17:07:30;4.45;;;2.78;;
18867;SDS011;9563;49.240;9.088;2023-06-10T17:09:57;3.38;;;2.72;;
18867;SDS011;9563;49.240;9.088;2023-06-10T17:12:25;3.05;;;2.70;;
18867;SDS011;9563;49.240;9.088;2023-06-10T17:14:52;2.85;;;2.53;;
18867;SDS011;9563;49.240;9.088;2023-06-10T17:17:19;4.35;;;3.03;;
18867;SDS011;9563;49.240;9.088;2023-06-10T17:19:46;3.25;;;2.28;;
18867;SDS011;9563;49.240;9.088;2023-06-10T17:22:13;3.85;;;2.80;;
18867;SDS011;9563;49.240;9.088;2023-06-10T17:24:39;3.53;;;2.60;;
18867;SDS011;9563;49.240;9.088;2023-06-10T17:27:06;2.78;;;2.50;;
18867;SDS011;9563;49.240;9.088;2023-06-10T17:29:35;3.08;;;2.67;;
18867;SDS011;9563;49.240;9.088;2023-06-10T17:32:04;2.92;;;2.47;;
18867;SDS011;9563;49.240;9.088;2023-06-10T17:34:31;3.65;;;2.60;;
18867;SDS011;9563;49.240;9.088;2023-06-10T17:36:58;4.30;;;2.80;;
18867;SDS011;9563;49.240;9.088;2023-06-10T17:39:25;2.70;;;2.50;;
18867;SDS011;9563;49.240;9.088;2023-06-10T17:41:54;2.85;;;2.55;;
18867;SDS011;9563;49.240;9.088;2023-06-10T17:44:21;3.88;;;2.38;;
18867;SDS011;9563;49.240;9.088;2023-06-10T17:46:51;2.65;;;2.30;;
18867;SDS011;9563;49.240;9.088;2023-06-10T17:49:19;3.42;;;2.83;;
18867;SDS011;9563;49.240;9.088;2023-06-10T17:51:48;2.95;;;2.63;;
18867;SDS011;9563;49.240;9.088;2023-06-10T17:54:15;3.15;;;2.65;;
18867;SDS011;9563;49.240;9.088;2023-06-10T17:56:42;3.25;;;2.95;;
18867;SDS011;9563;49.240;9.088;2023-06-10T17:59:10;4.43;;;2.80;;
18867;SDS011;9563;49.240;9.088;2023-06-10T18:01:36;3.72;;;2.95;;
18867;SDS011;9563;49.240;9.088;2023-06-10T18:04:05;3.90;;;3.10;;
18867;SDS011;9563;49.240;9.088;2023-06-10T18:06:32;3.35;;;3.05;;
18867;SDS011;9563;49.240;9.088;2023-06-10T18:09:03;7.82;;;3.38;;
18867;SDS011;9563;49.240;9.088;2023-06-10T18:11:29;4.05;;;2.90;;
18867;SDS011;9563;49.240;9.088;2023-06-10T18:13:56;5.75;;;3.03;;
18867;SDS011;9563;49.240;9.088;2023-06-10T18:16:23;3.78;;;3.10;;
18867;SDS011;9563;49.240;9.088;2023-06-10T18:18:51;4.22;;;3.35;;
18867;SDS011;9563;49.240;9.088;2023-06-10T18:21:20;8.52;;;3.45;;
18867;SDS011;9563;49.240;9.088;2023-06-10T18:23:47;6.18;;;3.80;;
18867;SDS011;9563;49.240;9.088;2023-06-10T18:26:14;6.32;;;3.45;;
18867;SDS011;9563;49.240;9.088;2023-06-10T18:28:41;4.63;;;3.42;;
18867;SDS011;9563;49.240;9.088;2023-06-10T18:31:11;5.95;;;3.55;;
18867;SDS011;9563;49.240;9.088;2023-06-10T18:33:37;5.22;;;3.50;;
18867;SDS011;9563;49.240;9.088;2023-06-10T18:36:05;5.10;;;3.65;;
18867;SDS011;9563;49.240;9.088;2023-06-10T18:38:34;4.25;;;3.20;;
18867;SDS011;9563;49.240;9.088;2023-06-10T18:41:01;7.57;;;3.55;;
18867;SDS011;9563;49.240;9.088;2023-06-10T18:43:31;4.30;;;3.80;;
18867;SDS011;9563;49.240;9.088;2023-06-10T18:45:57;6.47;;;3.97;;
18867;SDS011;9563;49.240;9.088;2023-06-10T18:48:25;6.10;;;4.25;;
18867;SDS011;9563;49.240;9.088;2023-06-10T18:50:52;7.85;;;3.58;;
18867;SDS011;9563;49.240;9.088;2023-06-10T18:53:19;7.47;;;4.13;;
18867;SDS011;9563;49.240;9.088;2023-06-10T18:55:47;6.18;;;3.78;;
18867;SDS011;9563;49.240;9.088;2023-06-10T18:58:14;5.75;;;4.30;;
18867;SDS011;9563;49.240;9.088;2023-06-10T19:00:41;5.80;;;4.35;;
18867;SDS011;9563;49.240;9.088;2023-06-10T19:03:08;6.88;;;4.22;;
18867;SDS011;9563;49.240;9.088;2023-06-10T19:05:35;6.55;;;4.47;;
18867;SDS011;9563;49.240;9.088;2023-06-10T19:08:01;6.63;;;5.03;;
18867;SDS011;9563;49.240;9.088;2023-06-10T19:10:29;5.30;;;4.25;;
18867;SDS011;9563;49.240;9.088;2023-06-10T19:12:57;6.28;;;4.70;;
18867;SDS011;9563;49.240;9.088;2023-06-10T19:15:24;5.55;;;4.40;;
18867;SDS011;9563;49.240;9.088;2023-06-10T19:17:50;8.32;;;4.70;;
18867;SDS011;9563;49.240;9.088;2023-06-10T19:20:17;10.63;;;4.70;;
18867;SDS011;9563;49.240;9.088;2023-06-10T19:22:44;5.93;;;4.68;;
18867;SDS011;9563;49.240;9.088;2023-06-10T19:25:11;7.43;;;4.43;;
18867;SDS011;9563;49.240;9.088;2023-06-10T19:27:38;9.82;;;4.80;;
18867;SDS011;9563;49.240;9.088;2023-06-10T19:30:08;6.10;;;4.90;;
18867;SDS011;9563;49.240;9.088;2023-06-10T19:32:35;8.30;;;4.45;;
18867;SDS011;9563;49.240;9.088;2023-06-10T19:35:02;7.43;;;4.63;;
18867;SDS011;9563;49.240;9.088;2023-06-10T19:37:30;5.88;;;4.72;;
18867;SDS011;9563;49.240;9.088;2023-06-10T19:39:57;7.15;;;4.53;;
18867;SDS011;9563;49.240;9.088;2023-06-10T19:42:24;10.40;;;4.85;;
18867;SDS011;9563;49.240;9.088;2023-06-10T19:44:51;5.53;;;4.50;;
18867;SDS011;9563;49.240;9.088;2023-06-10T19:47:19;7.43;;;4.65;;
18867;SDS011;9563;49.240;9.088;2023-06-10T19:49:46;7.22;;;4.40;;
18867;SDS011;9563;49.240;9.088;2023-06-10T19:52:13;6.43;;;4.18;;
18867;SDS011;9563;49.240;9.088;2023-06-10T19:54:40;5.75;;;4.50;;
18867;SDS011;9563;49.240;9.088;2023-06-10T19:57:08;8.02;;;4.75;;
18867;SDS011;9563;49.240;9.088;2023-06-10T19:59:34;5.72;;;4.70;;
18867;SDS011;9563;49.240;9.088;2023-06-10T20:02:01;7.43;;;4.50;;
18867;SDS011;9563;49.240;9.088;2023-06-10T20:04:30;7.30;;;4.90;;
18867;SDS011;9563;49.240;9.088;2023-06-10T20:06:57;5.60;;;4.60;;
18867;SDS011;9563;49.240;9.088;2023-06-10T20:09:24;10.20;;;5.13;;
18867;SDS011;9563;49.240;9.088;2023-06-10T20:11:51;5.10;;;4.53;;
18867;SDS011;9563;49.240;9.088;2023-06-10T20:14:17;5.65;;;4.55;;